Time;durP1;ratioP1;P1;durP2;ratioP2;P2;SDS_P1;SDS_P2;PMS_P1;PMS_P2;Temp;Humidity;BMP_temperature;BMP_pressure;BME280_temperature;BME280_humidity;BME280_pressure;Samples;Min_cycle;Max_cycle;Signal;HPM_P1;HPM_P2
2023/09/04 00:01:59;;;;;;;2.92;1.48;;;17.60;67.10;;;;;;5106191;27;20024;-61
2023/09/04 00:04:25;;;;;;;6.55;2.08;;;17.60;67.00;;;;;;5113265;27;20038;-61
2023/09/04 00:06:51;;;;;;;5.07;1.80;;;17.60;67.00;;;;;;5099795;27;20079;-60
2023/09/04 00:09:16;;;;;;;3.75;1.67;;;17.60;67.00;;;;;;5110094;27;20030;-60
2023/09/04 00:11:42;;;;;;;2.55;1.85;;;17.50;66.90;;;;;;5079456;28;20047;-61
2023/09/04 00:14:07;;;;;;;2.60;1.77;;;17.50;66.90;;;;;;5104790;27;20373;-61
2023/09/04 00:16:33;;;;;;;8.38;1.80;;;17.50;66.90;;;;;;5100145;28;20027;-60
2023/09/04 00:18:59;;;;;;;3.78;1.90;;;17.50;66.90;;;;;;5112894;27;20023;-60
2023/09/04 00:21:26;;;;;;;2.83;1.83;;;17.50;67.00;;;;;;5106384;27;20031;-60
2023/09/04 00:23:51;;;;;;;2.45;1.83;;;17.40;67.10;;;;;;5107297;27;20019;-60
2023/09/04 00:26:17;;;;;;;3.80;2.00;;;17.40;66.90;;;;;;5105937;27;20035;-61
2023/09/04 00:28:42;;;;;;;2.78;2.03;;;17.40;67.00;;;;;;5099534;27;20019;-61
2023/09/04 00:31:08;;;;;;;3.38;1.98;;;17.40;67.20;;;;;;5085702;28;20072;-61
2023/09/04 00:33:34;;;;;;;2.63;2.05;;;17.40;67.40;;;;;;5108354;27;20385;-61
2023/09/04 00:36:02;;;;;;;4.53;2.08;;;17.30;67.50;;;;;;5094631;27;20404;-61
2023/09/04 00:38:28;;;;;;;4.68;1.85;;;17.30;67.50;;;;;;5106826;27;20549;-60
2023/09/04 00:40:55;;;;;;;2.78;1.90;;;17.40;67.70;;;;;;5101590;27;20066;-60
2023/09/04 00:43:21;;;;;;;6.85;1.77;;;17.30;67.70;;;;;;5107543;27;20434;-60
2023/09/04 00:45:47;;;;;;;3.20;1.70;;;17.30;67.80;;;;;;5106333;27;21127;-60
2023/09/04 00:48:13;;;;;;;3.15;1.80;;;17.30;67.90;;;;;;5095386;27;20055;-60
2023/09/04 00:50:41;;;;;;;2.53;1.85;;;17.30;68.00;;;;;;5105272;27;20024;-60
2023/09/04 00:53:08;;;;;;;2.55;1.67;;;17.30;68.10;;;;;;5102593;27;20450;-60
2023/09/04 00:55:35;;;;;;;2.55;1.58;;;17.30;68.10;;;;;;5101121;28;20047;-60
2023/09/04 00:58:01;;;;;;;3.42;2.28;;;17.20;68.10;;;;;;5098201;27;20051;-59
2023/09/04 01:00:27;;;;;;;7.55;2.08;;;17.20;68.20;;;;;;5104024;27;20028;-60
2023/09/04 01:02:54;;;;;;;3.25;1.77;;;17.20;68.30;;;;;;5098370;28;20039;-60
2023/09/04 01:05:20;;;;;;;5.57;1.73;;;17.20;68.40;;;;;;5105656;27;20093;-60
2023/09/04 01:07:46;;;;;;;2.60;1.70;;;17.20;68.50;;;;;;5100853;27;20044;-61
2023/09/04 01:10:13;;;;;;;3.75;1.98;;;17.20;68.70;;;;;;5106150;27;20123;-59
2023/09/04 01:12:47;;;;;;;3.47;1.92;;;17.20;68.80;;;;;;5104216;27;20362;-60
2023/09/04 01:15:14;;;;;;;2.28;1.85;;;17.10;69.10;;;;;;5095041;28;20028;-60
2023/09/04 01:17:42;;;;;;;5.18;2.10;;;17.20;68.70;;;;;;5108353;27;20777;-61
2023/09/04 01:20:27;;;;;;;4.60;2.15;;;17.20;68.80;;;;;;5096072;27;20031;-61
2023/09/04 01:22:55;;;;;;;1.85;1.70;;;17.20;69.60;;;;;;5102737;27;20057;-61
2023/09/04 01:25:32;;;;;;;3.95;1.80;;;17.10;68.70;;;;;;5108914;27;20031;-60
2023/09/04 01:28:09;;;;;;;2.95;1.73;;;17.10;69.10;;;;;;5021863;27;20095;-60
2023/09/04 01:31:03;;;;;;;2.20;1.83;;;17.10;69.20;;;;;;5104804;27;20016;-60
2023/09/04 01:33:38;;;;;;;3.33;1.63;;;17.10;69.70;;;;;;5104792;27;20035;-62
2023/09/04 01:36:06;;;;;;;2.83;1.80;;;17.10;68.90;;;;;;5097635;27;20343;-61
2023/09/04 01:38:33;;;;;;;3.78;1.58;;;17.10;68.70;;;;;;5087175;28;20090;-60
2023/09/04 01:41:04;;;;;;;1.95;1.73;;;17.10;68.70;;;;;;5109706;27;20027;-60
2023/09/04 01:43:30;;;;;;;2.35;1.75;;;17.00;68.90;;;;;;5105503;27;20027;-60
2023/09/04 01:45:55;;;;;;;2.75;1.90;;;17.00;68.70;;;;;;5103047;27;20101;-60
2023/09/04 01:48:21;;;;;;;5.78;1.90;;;17.00;68.70;;;;;;5097614;28;20023;-61
2023/09/04 01:50:47;;;;;;;2.53;1.80;;;17.00;68.70;;;;;;5102970;27;20027;-61
2023/09/04 01:53:12;;;;;;;2.97;1.80;;;17.00;68.80;;;;;;5103415;27;20647;-61
2023/09/04 01:55:38;;;;;;;3.15;1.80;;;16.90;68.80;;;;;;5099833;27;20473;-60
2023/09/04 01:58:03;;;;;;;2.13;1.92;;;16.90;68.80;;;;;;5098246;28;20076;-61
2023/09/04 02:00:29;;;;;;;2.20;2.00;;;16.90;68.80;;;;;;5102891;27;20089;-61
2023/09/04 02:02:55;;;;;;;7.32;2.20;;;16.90;68.80;;;;;;5108591;28;20075;-61
2023/09/04 02:05:21;;;;;;;5.88;2.10;;;16.90;68.90;;;;;;5103713;28;20024;-61
2023/09/04 02:07:46;;;;;;;2.72;1.90;;;16.80;68.90;;;;;;5103970;28;20078;-61
2023/09/04 02:10:12;;;;;;;2.13;1.92;;;16.80;69.00;;;;;;5107771;27;20044;-61
2023/09/04 02:12:38;;;;;;;3.60;2.17;;;16.80;69.00;;;;;;5110541;27;20027;-60
2023/09/04 02:15:04;;;;;;;2.33;2.10;;;16.80;68.90;;;;;;5106043;27;20028;-60
2023/09/04 02:17:30;;;;;;;5.07;2.00;;;16.80;69.00;;;;;;5107561;27;20067;-60
2023/09/04 02:19:55;;;;;;;3.72;2.05;;;16.70;68.90;;;;;;5086056;27;20060;-61
2023/09/04 02:22:21;;;;;;;3.92;1.92;;;16.70;69.00;;;;;;5111044;27;20071;-60
2023/09/04 02:24:47;;;;;;;2.63;2.28;;;16.70;69.10;;;;;;5112426;27;20564;-60
2023/09/04 02:27:13;;;;;;;3.72;1.90;;;16.70;69.10;;;;;;5107213;27;20030;-62
2023/09/04 02:29:39;;;;;;;2.00;1.80;;;16.70;69.00;;;;;;5105986;27;20474;-61
2023/09/04 02:32:05;;;;;;;3.08;1.90;;;16.70;69.00;;;;;;5109736;27;20026;-60
2023/09/04 02:34:30;;;;;;;3.13;2.00;;;16.60;69.00;;;;;;5103671;27;20424;-60
2023/09/04 02:36:58;;;;;;;3.78;1.92;;;16.60;69.00;;;;;;5102553;27;20534;-60
2023/09/04 02:39:24;;;;;;;11.30;2.40;;;16.70;69.00;;;;;;5104773;27;20020;-60
2023/09/04 02:41:50;;;;;;;4.57;2.13;;;16.60;69.00;;;;;;5110299;27;20409;-60
2023/09/04 02:44:16;;;;;;;3.75;2.10;;;16.60;69.10;;;;;;5087489;28;20036;-61
2023/09/04 02:46:41;;;;;;;6.45;2.40;;;16.60;69.10;;;;;;5105300;27;20028;-60
2023/09/04 02:49:07;;;;;;;7.00;2.08;;;16.60;69.20;;;;;;5107453;27;20023;-61
2023/09/04 02:51:33;;;;;;;5.78;1.85;;;16.50;69.20;;;;;;5109218;27;20487;-59
2023/09/04 02:53:58;;;;;;;5.32;2.20;;;16.50;69.10;;;;;;5106022;27;20031;-61
2023/09/04 02:56:24;;;;;;;4.55;2.00;;;16.50;69.20;;;;;;5112988;27;20133;-60
2023/09/04 02:58:50;;;;;;;3.03;2.10;;;16.50;69.20;;;;;;5108167;27;20563;-60
2023/09/04 03:01:16;;;;;;;3.47;2.10;;;16.40;69.20;;;;;;5105532;27;20032;-60
2023/09/04 03:03:42;;;;;;;3.83;1.90;;;16.40;69.30;;;;;;5104124;27;20022;-61
2023/09/04 03:06:10;;;;;;;3.05;2.35;;;16.40;69.40;;;;;;5111812;27;20071;-60
2023/09/04 03:08:38;;;;;;;3.95;2.10;;;16.40;69.70;;;;;;5111079;27;20063;-60
2023/09/04 03:11:09;;;;;;;4.40;2.08;;;16.40;69.60;;;;;;5101498;27;20312;-60
2023/09/04 03:13:35;;;;;;;6.32;2.47;;;16.40;69.80;;;;;;5111090;27;20487;-60
2023/09/04 03:16:01;;;;;;;3.38;2.20;;;16.30;69.50;;;;;;5114229;27;20039;-60
2023/09/04 03:18:26;;;;;;;4.95;2.08;;;16.30;69.40;;;;;;5105700;27;20020;-61
2023/09/04 03:20:52;;;;;;;5.00;2.35;;;16.30;69.40;;;;;;5115550;27;20394;-60
2023/09/04 03:23:18;;;;;;;4.32;2.20;;;16.30;69.50;;;;;;5110764;27;20457;-60
2023/09/04 03:25:44;;;;;;;2.65;2.05;;;16.20;69.40;;;;;;5099760;28;20074;-61
2023/09/04 03:28:09;;;;;;;3.97;2.20;;;16.20;69.50;;;;;;5103090;27;20020;-60
2023/09/04 03:30:35;;;;;;;4.93;2.30;;;16.20;69.50;;;;;;5113362;27;20019;-59
2023/09/04 03:33:00;;;;;;;5.88;2.40;;;16.20;69.50;;;;;;5112005;27;20019;-60
2023/09/04 03:35:26;;;;;;;3.47;2.00;;;16.10;69.60;;;;;;5103300;27;20046;-61
2023/09/04 03:37:52;;;;;;;3.38;1.90;;;16.10;69.60;;;;;;5103790;27;20031;-60
2023/09/04 03:40:23;;;;;;;2.30;2.10;;;16.10;69.60;;;;;;5090241;28;20020;-60
2023/09/04 03:42:50;;;;;;;5.28;2.25;;;16.10;69.70;;;;;;5107652;27;20378;-61
2023/09/04 03:45:16;;;;;;;6.22;2.17;;;16.10;69.70;;;;;;5108931;27;20050;-60
2023/09/04 03:47:45;;;;;;;5.53;2.38;;;16.00;69.60;;;;;;5105119;27;20019;-60
2023/09/04 03:50:13;;;;;;;2.80;2.50;;;16.00;69.70;;;;;;5104501;27;20107;-60
2023/09/04 03:52:40;;;;;;;3.20;2.28;;;16.00;69.70;;;;;;5085098;28;20530;-61
2023/09/04 03:55:07;;;;;;;3.70;2.20;;;16.00;69.70;;;;;;5111042;27;20163;-60
2023/09/04 03:57:35;;;;;;;4.47;3.03;;;15.90;70.50;;;;;;5096103;27;20019;-60
2023/09/04 04:00:01;;;;;;;3.33;2.25;;;15.90;69.80;;;;;;5108929;27;20031;-60
2023/09/04 04:02:27;;;;;;;3.65;2.38;;;15.90;69.80;;;;;;5105082;27;20031;-61
2023/09/04 04:04:53;;;;;;;3.63;2.42;;;15.90;69.90;;;;;;5102105;27;20039;-60
2023/09/04 04:07:18;;;;;;;4.35;1.95;;;15.90;69.90;;;;;;5103279;28;20039;-60
2023/09/04 04:09:47;;;;;;;4.45;2.80;;;15.80;69.90;;;;;;5105109;27;20123;-60
2023/09/04 04:12:14;;;;;;;7.65;2.50;;;15.80;69.90;;;;;;5103055;28;20673;-60
2023/09/04 04:14:40;;;;;;;2.80;2.60;;;15.80;69.80;;;;;;5104384;27;20102;-61
2023/09/04 04:17:08;;;;;;;2.42;2.17;;;15.80;69.70;;;;;;5101905;27;20163;-61
2023/09/04 04:19:33;;;;;;;4.72;2.70;;;15.80;69.80;;;;;;5106618;27;20023;-60
2023/09/04 04:21:59;;;;;;;4.80;2.40;;;15.80;69.90;;;;;;5109419;27;20032;-60
2023/09/04 04:24:27;;;;;;;4.05;2.30;;;15.80;70.00;;;;;;5106791;27;20032;-60
2023/09/04 04:26:52;;;;;;;3.47;2.70;;;15.70;70.00;;;;;;5103748;28;20154;-61
2023/09/04 04:29:18;;;;;;;3.08;2.17;;;15.70;70.00;;;;;;5108976;27;20102;-60
2023/09/04 04:31:44;;;;;;;4.88;2.35;;;15.70;70.00;;;;;;5108953;27;20031;-61
2023/09/04 04:34:10;;;;;;;6.13;2.50;;;15.70;69.90;;;;;;5098437;28;20148;-59
2023/09/04 04:36:35;;;;;;;2.38;2.05;;;15.70;70.10;;;;;;5106581;27;20023;-60
2023/09/04 04:39:03;;;;;;;4.05;1.90;;;15.70;70.20;;;;;;5103044;27;20031;-60
2023/09/04 04:41:30;;;;;;;2.00;1.80;;;15.60;70.20;;;;;;5099329;28;20019;-61
2023/09/04 04:43:55;;;;;;;6.30;2.25;;;15.70;70.20;;;;;;5103718;27;20028;-60
2023/09/04 04:46:21;;;;;;;2.95;2.15;;;15.60;70.10;;;;;;5102935;27;20239;-60
2023/09/04 04:48:47;;;;;;;3.47;2.05;;;15.60;70.20;;;;;;5103844;27;20032;-60
2023/09/04 04:51:12;;;;;;;4.10;2.42;;;15.60;70.20;;;;;;5103727;27;20032;-60
2023/09/04 04:53:38;;;;;;;6.13;2.42;;;15.60;70.30;;;;;;5106085;27;20028;-60
2023/09/04 04:56:04;;;;;;;3.42;2.40;;;15.60;70.40;;;;;;5102505;28;20102;-60
2023/09/04 04:58:29;;;;;;;3.90;2.25;;;15.60;70.40;;;;;;5105992;27;20202;-61
2023/09/04 05:00:55;;;;;;;2.75;2.15;;;15.60;70.40;;;;;;5100415;27;20484;-62
2023/09/04 05:03:20;;;;;;;4.05;2.47;;;15.50;70.30;;;;;;5104579;28;20027;-60
2023/09/04 05:05:46;;;;;;;3.47;2.33;;;15.50;70.40;;;;;;5091666;27;20055;-60
2023/09/04 05:08:13;;;;;;;3.95;2.50;;;15.50;70.50;;;;;;5110210;27;20096;-61
2023/09/04 05:10:38;;;;;;;7.22;2.53;;;15.50;70.60;;;;;;5105419;27;20031;-60
2023/09/04 05:13:04;;;;;;;3.63;2.50;;;15.60;70.80;;;;;;5109801;27;20020;-60
2023/09/04 05:15:30;;;;;;;5.43;2.53;;;15.60;70.90;;;;;;5108952;27;20549;-60
2023/09/04 05:17:55;;;;;;;3.72;2.50;;;15.60;71.00;;;;;;5107937;27;20088;-61
2023/09/04 05:20:21;;;;;;;5.32;2.42;;;15.60;71.10;;;;;;5098267;27;20032;-60
2023/09/04 05:22:47;;;;;;;3.35;2.25;;;15.60;71.20;;;;;;5097760;27;20526;-61
2023/09/04 05:25:12;;;;;;;2.90;2.60;;;15.70;71.30;;;;;;5107747;27;20047;-60
2023/09/04 05:27:38;;;;;;;2.95;2.40;;;15.70;71.30;;;;;;5097802;27;20030;-59
2023/09/04 05:30:05;;;;;;;3.50;2.50;;;15.70;71.20;;;;;;5101327;27;20142;-60
2023/09/04 05:32:30;;;;;;;2.90;2.42;;;15.80;71.20;;;;;;5099656;27;20024;-61
2023/09/04 05:34:56;;;;;;;7.05;2.38;;;15.80;71.20;;;;;;5103474;27;20081;-61
2023/09/04 05:37:22;;;;;;;3.08;2.45;;;15.90;71.30;;;;;;5105078;27;20047;-59
2023/09/04 05:39:48;;;;;;;3.72;2.60;;;16.00;71.40;;;;;;5103852;28;20053;-60
2023/09/04 05:42:14;;;;;;;2.75;2.25;;;16.00;71.50;;;;;;5112987;27;20038;-61
2023/09/04 05:44:40;;;;;;;3.78;2.65;;;16.10;71.50;;;;;;5106117;27;20032;-60
2023/09/04 05:47:06;;;;;;;5.07;2.90;;;16.10;71.70;;;;;;5094241;28;20103;-61
2023/09/04 05:49:32;;;;;;;3.63;2.65;;;16.20;71.70;;;;;;5111816;27;20443;-61
2023/09/04 05:51:57;;;;;;;6.75;2.95;;;16.30;71.70;;;;;;5104756;27;20024;-61
2023/09/04 05:54:23;;;;;;;7.80;3.00;;;16.40;71.60;;;;;;5114857;27;20513;-60
2023/09/04 05:56:49;;;;;;;6.40;2.92;;;16.50;71.60;;;;;;5098581;28;20102;-60
2023/09/04 05:59:15;;;;;;;6.22;2.92;;;16.60;71.70;;;;;;5106671;27;20396;-60
2023/09/04 06:01:41;;;;;;;4.50;2.67;;;16.80;71.80;;;;;;5101808;28;20046;-60
2023/09/04 06:04:06;;;;;;;3.63;2.80;;;16.90;71.80;;;;;;5102816;28;23160;-60
2023/09/04 06:06:32;;;;;;;3.75;2.83;;;16.90;71.50;;;;;;5079865;28;20546;-60
2023/09/04 06:08:58;;;;;;;5.07;2.90;;;17.10;71.40;;;;;;5102273;28;20024;-60
2023/09/04 06:11:23;;;;;;;8.80;3.50;;;17.20;71.30;;;;;;5077653;28;20073;-61
2023/09/04 06:13:49;;;;;;;6.72;3.00;;;17.30;71.20;;;;;;5079539;28;20140;-60
2023/09/04 06:16:21;;;;;;;3.67;2.60;;;17.50;71.20;;;;;;5097890;28;20243;-60
2023/09/04 06:18:46;;;;;;;3.00;2.60;;;17.60;71.20;;;;;;5101521;28;20110;-60
2023/09/04 06:21:12;;;;;;;2.97;2.55;;;17.70;70.90;;;;;;5081099;28;20481;-61
2023/09/04 06:23:38;;;;;;;4.63;2.97;;;17.80;70.70;;;;;;5101534;28;20027;-60
2023/09/04 06:26:04;;;;;;;3.67;2.67;;;18.00;70.60;;;;;;5080226;28;20078;-61
2023/09/04 06:28:29;;;;;;;4.30;2.88;;;18.10;70.40;;;;;;5003057;28;20111;-62
2023/09/04 06:30:57;;;;;;;4.25;3.20;;;18.20;70.10;;;;;;5083267;28;20095;-60
2023/09/04 06:33:27;;;;;;;5.00;3.00;;;18.40;69.90;;;;;;5097202;28;20051;-60
2023/09/04 06:35:53;;;;;;;4.53;3.17;;;18.50;69.50;;;;;;5084411;28;20036;-61
2023/09/04 06:38:18;;;;;;;3.95;3.15;;;18.60;69.00;;;;;;5093925;28;20028;-60
2023/09/04 06:40:44;;;;;;;3.60;2.90;;;18.70;68.70;;;;;;5098763;28;20103;-60
2023/09/04 06:43:10;;;;;;;6.63;3.13;;;18.80;68.60;;;;;;5110532;28;20051;-60
2023/09/04 06:45:38;;;;;;;3.90;3.28;;;19.00;68.30;;;;;;5078968;28;21933;-62
2023/09/04 06:48:05;;;;;;;5.20;2.80;;;19.10;68.10;;;;;;5078284;28;20577;-62
2023/09/04 06:50:31;;;;;;;3.47;2.80;;;19.20;67.70;;;;;;5090923;28;20027;-61
2023/09/04 06:52:57;;;;;;;4.15;2.92;;;19.30;67.10;;;;;;5107372;28;20339;-62
2023/09/04 06:55:23;;;;;;;4.32;2.83;;;19.40;67.10;;;;;;5115960;27;20038;-60
2023/09/04 06:57:49;;;;;;;3.85;3.10;;;19.50;66.60;;;;;;5105971;27;20027;-61
2023/09/04 07:00:16;;;;;;;3.58;2.80;;;19.60;66.60;;;;;;5107779;27;20024;-59
2023/09/04 07:02:41;;;;;;;4.32;2.53;;;19.70;66.60;;;;;;5099165;27;20024;-60
2023/09/04 07:05:08;;;;;;;4.18;2.70;;;19.80;66.10;;;;;;5108816;27;20043;-61
2023/09/04 07:07:37;;;;;;;4.72;2.40;;;20.00;66.00;;;;;;5105163;27;20120;-60
2023/09/04 07:10:06;;;;;;;3.55;2.90;;;20.00;65.80;;;;;;5111446;27;20035;-60
2023/09/04 07:12:35;;;;;;;4.13;2.90;;;20.20;65.70;;;;;;5103839;27;20028;-62
2023/09/04 07:15:01;;;;;;;5.18;2.83;;;20.30;65.40;;;;;;5108157;27;20591;-61
2023/09/04 07:17:26;;;;;;;4.07;2.67;;;20.40;65.30;;;;;;5105332;27;20713;-60
2023/09/04 07:19:54;;;;;;;4.10;2.88;;;20.60;65.00;;;;;;5104838;27;20098;-60
2023/09/04 07:22:19;;;;;;;4.70;3.08;;;20.70;64.60;;;;;;5095017;27;20012;-60
2023/09/04 07:24:45;;;;;;;4.50;3.13;;;20.80;64.30;;;;;;5105218;27;20043;-60
2023/09/04 07:27:11;;;;;;;3.90;3.20;;;20.90;63.90;;;;;;5009513;27;20024;-63
2023/09/04 07:29:36;;;;;;;3.22;2.92;;;21.10;63.30;;;;;;5090811;27;20015;-61
2023/09/04 07:32:02;;;;;;;4.00;2.88;;;21.20;62.90;;;;;;5095619;28;20020;-61
2023/09/04 07:34:29;;;;;;;5.07;2.80;;;21.20;62.70;;;;;;5102939;27;20028;-61
2023/09/04 07:36:54;;;;;;;4.53;3.13;;;21.30;62.30;;;;;;5108220;27;20043;-61
2023/09/04 07:39:20;;;;;;;4.18;3.03;;;21.40;62.20;;;;;;5111857;27;20030;-60
2023/09/04 07:41:46;;;;;;;2.83;2.58;;;21.50;62.00;;;;;;5109367;27;20031;-62
2023/09/04 07:44:11;;;;;;;4.20;3.05;;;21.60;61.80;;;;;;5103696;27;20230;-61
2023/09/04 07:46:37;;;;;;;4.78;3.42;;;21.80;61.90;;;;;;5114599;27;20058;-61
2023/09/04 07:49:03;;;;;;;3.92;2.83;;;21.80;61.50;;;;;;5096334;27;20108;-61
2023/09/04 07:51:28;;;;;;;6.47;3.05;;;21.90;61.30;;;;;;5096720;27;20084;-60
2023/09/04 07:53:54;;;;;;;8.68;3.63;;;21.90;61.00;;;;;;5107322;27;20260;-60
2023/09/04 07:56:22;;;;;;;3.65;3.03;;;22.00;60.90;;;;;;5096529;27;20030;-60
2023/09/04 07:58:49;;;;;;;4.30;3.40;;;22.10;60.80;;;;;;5110893;27;20458;-60
2023/09/04 08:01:14;;;;;;;4.28;3.40;;;22.20;60.50;;;;;;5109137;27;20036;-61
2023/09/04 08:03:43;;;;;;;7.90;3.55;;;22.30;60.30;;;;;;5104941;27;20033;-61
2023/09/04 08:06:09;;;;;;;4.22;2.50;;;22.40;59.90;;;;;;5104115;27;20039;-61
2023/09/04 08:08:35;;;;;;;3.83;3.03;;;22.50;60.20;;;;;;5104671;27;20042;-61
2023/09/04 08:11:01;;;;;;;6.63;2.88;;;22.70;60.20;;;;;;5111173;27;20035;-61
2023/09/04 08:13:27;;;;;;;3.47;2.92;;;22.80;60.00;;;;;;5105025;27;20034;-61
2023/09/04 08:15:52;;;;;;;4.35;2.95;;;22.90;59.80;;;;;;5116247;27;20163;-60
2023/09/04 08:18:18;;;;;;;3.53;2.90;;;23.00;59.50;;;;;;5105122;27;20023;-61
2023/09/04 08:20:43;;;;;;;3.08;2.65;;;23.10;59.50;;;;;;5089316;28;20030;-61
2023/09/04 08:23:09;;;;;;;3.47;2.58;;;23.10;59.20;;;;;;5110601;27;20026;-60
2023/09/04 08:25:36;;;;;;;3.78;2.92;;;23.30;59.20;;;;;;5088082;27;20035;-60
2023/09/04 08:28:03;;;;;;;3.70;2.63;;;23.30;59.00;;;;;;5026829;27;20363;-60
2023/09/04 08:30:29;;;;;;;2.92;2.50;;;23.40;59.00;;;;;;5110757;27;20066;-61
2023/09/04 08:32:54;;;;;;;3.65;2.63;;;23.50;58.90;;;;;;5111012;27;20477;-60
2023/09/04 08:35:20;;;;;;;3.35;2.58;;;23.60;58.60;;;;;;5109547;27;20041;-61
2023/09/04 08:37:46;;;;;;;4.75;2.63;;;23.80;58.50;;;;;;5105874;27;20031;-60
2023/09/04 08:40:12;;;;;;;3.33;2.53;;;23.80;58.10;;;;;;5092583;27;20038;-61
2023/09/04 08:42:39;;;;;;;2.85;2.53;;;23.90;57.70;;;;;;5101678;27;20393;-60
2023/09/04 08:45:07;;;;;;;4.15;2.83;;;24.00;57.10;;;;;;5108844;27;20107;-60
2023/09/04 08:47:39;;;;;;;3.50;2.72;;;24.00;57.10;;;;;;5099920;28;20044;-61
2023/09/04 08:50:05;;;;;;;3.20;2.35;;;24.10;56.50;;;;;;5098053;28;20059;-61
2023/09/04 08:52:31;;;;;;;4.00;2.70;;;24.20;57.10;;;;;;5102625;27;20119;-61
2023/09/04 08:54:58;;;;;;;6.85;2.45;;;24.20;56.70;;;;;;5107290;27;20476;-60
2023/09/04 08:57:25;;;;;;;3.75;2.58;;;24.30;56.90;;;;;;5100512;28;20038;-60
2023/09/04 08:59:50;;;;;;;3.05;2.70;;;24.40;56.80;;;;;;5100206;28;20231;-60
2023/09/04 09:02:18;;;;;;;3.95;3.10;;;24.50;56.60;;;;;;5110156;27;20707;-61
2023/09/04 09:04:45;;;;;;;3.70;2.58;;;24.70;56.00;;;;;;5103417;28;20042;-61
2023/09/04 09:07:12;;;;;;;4.85;2.83;;;24.70;55.90;;;;;;5099819;27;20108;-61
2023/09/04 09:09:46;;;;;;;4.40;2.65;;;24.80;55.60;;;;;;5093563;28;20024;-61
2023/09/04 09:12:13;;;;;;;5.60;2.63;;;24.90;55.20;;;;;;5088496;28;20092;-61
2023/09/04 09:14:39;;;;;;;7.10;2.42;;;25.00;55.40;;;;;;5102928;27;20028;-61
2023/09/04 09:17:06;;;;;;;5.68;2.38;;;25.00;55.10;;;;;;5101135;28;20032;-60
2023/09/04 09:19:33;;;;;;;3.17;2.30;;;25.10;54.90;;;;;;5102381;27;20062;-61
2023/09/04 09:22:16;;;;;;;9.98;2.63;;;25.10;54.60;;;;;;5097569;28;20024;-61
2023/09/04 09:24:56;;;;;;;2.88;2.58;;;25.20;53.50;;;;;;5095294;27;20040;-62
2023/09/04 09:27:24;;;;;;;3.88;2.50;;;25.20;53.50;;;;;;5097717;27;20430;-61
2023/09/04 09:29:50;;;;;;;4.93;2.30;;;25.30;54.60;;;;;;5096555;27;20099;-61
2023/09/04 09:32:18;;;;;;;3.25;2.40;;;25.30;54.30;;;;;;5084572;28;20177;-60
2023/09/04 09:34:51;;;;;;;4.25;2.40;;;25.40;54.00;;;;;;5104160;27;20474;-61
2023/09/04 09:37:18;;;;;;;3.50;3.20;;;25.40;53.20;;;;;;5095562;28;20039;-61
2023/09/04 09:39:43;;;;;;;3.83;2.45;;;25.40;53.90;;;;;;5099807;28;20038;-61
2023/09/04 09:42:10;;;;;;;3.65;2.45;;;25.50;54.10;;;;;;5102565;28;20020;-61
2023/09/04 09:44:36;;;;;;;5.05;2.42;;;25.60;53.70;;;;;;5104721;27;20031;-61
2023/09/04 09:47:01;;;;;;;3.88;2.38;;;25.60;53.90;;;;;;5099476;27;20080;-60
2023/09/04 09:49:30;;;;;;;6.05;2.40;;;25.70;54.10;;;;;;5098004;28;20046;-60
2023/09/04 09:51:56;;;;;;;2.80;2.50;;;25.80;54.00;;;;;;5103001;27;20031;-61
2023/09/04 09:54:34;;;;;;;3.80;2.45;;;25.90;53.70;;;;;;5107851;27;20039;-61
2023/09/04 09:57:01;;;;;;;3.40;2.70;;;26.00;53.00;;;;;;5103270;27;20037;-60
2023/09/04 09:59:29;;;;;;;3.45;2.72;;;26.00;53.70;;;;;;5098147;27;20020;-61
2023/09/04 10:01:56;;;;;;;2.85;2.50;;;26.20;53.60;;;;;;5100199;28;20028;-61
2023/09/04 10:04:24;;;;;;;3.47;2.60;;;26.20;53.40;;;;;;5091942;27;20115;-60
2023/09/04 10:06:51;;;;;;;2.53;2.30;;;26.40;53.20;;;;;;5093809;28;20108;-61
2023/09/04 10:09:22;;;;;;;3.47;2.53;;;26.40;53.10;;;;;;5097998;28;20437;-61
2023/09/04 10:11:57;;;;;;;3.20;2.45;;;26.40;51.30;;;;;;5100830;28;20112;-61
2023/09/04 10:14:32;;;;;;;2.80;2.15;;;26.40;51.90;;;;;;5107761;28;20031;-61
2023/09/04 10:17:01;;;;;;;2.67;2.17;;;26.50;52.40;;;;;;5082666;28;20024;-61
2023/09/04 10:19:32;;;;;;;2.35;2.15;;;26.60;52.40;;;;;;5102581;28;20064;-61
2023/09/04 10:22:09;;;;;;;3.25;2.30;;;26.70;51.90;;;;;;5103009;28;20057;-61
2023/09/04 10:25:12;;;;;;;7.75;2.00;;;26.70;51.40;;;;;;5103172;28;20046;-61
2023/09/04 10:27:57;;;;;;;2.63;2.05;;;26.80;51.00;;;;;;5072284;28;20038;-61
2023/09/04 10:30:26;;;;;;;2.95;2.00;;;26.90;50.50;;;;;;5104839;28;20031;-61
2023/09/04 10:32:54;;;;;;;3.10;2.00;;;26.90;50.70;;;;;;5109328;27;20043;-61
2023/09/04 10:35:20;;;;;;;2.72;2.08;;;26.90;50.30;;;;;;5107232;27;20015;-61
2023/09/04 10:37:48;;;;;;;5.20;1.90;;;27.00;50.60;;;;;;5108456;27;20072;-61
2023/09/04 10:40:15;;;;;;;2.58;2.10;;;27.00;50.20;;;;;;5107103;27;20022;-62
2023/09/04 10:42:42;;;;;;;3.50;2.20;;;27.00;50.50;;;;;;5089888;27;20382;-62
2023/09/04 10:45:12;;;;;;;3.08;1.98;;;27.00;50.30;;;;;;5107161;27;20114;-62
2023/09/04 10:47:49;;;;;;;2.60;1.90;;;27.10;49.50;;;;;;5105623;27;20423;-62
2023/09/04 10:50:36;;;;;;;3.20;2.00;;;27.20;49.50;;;;;;5102340;27;20032;-60
2023/09/04 10:53:04;;;;;;;2.03;1.83;;;27.20;48.40;;;;;;5107992;27;20038;-61
2023/09/04 10:55:33;;;;;;;2.33;1.80;;;27.30;49.20;;;;;;5101485;27;20042;-60
2023/09/04 10:58:01;;;;;;;2.30;2.10;;;27.30;49.30;;;;;;5107179;27;20029;-60
2023/09/04 11:00:33;;;;;;;2.47;2.13;;;27.40;49.40;;;;;;5104235;27;20027;-61
2023/09/04 11:03:18;;;;;;;2.35;2.13;;;27.40;48.30;;;;;;5101365;28;20488;-62
2023/09/04 11:06:05;;;;;;;2.22;1.85;;;27.50;48.70;;;;;;5103586;27;20055;-62
2023/09/04 11:08:50;;;;;;;2.47;1.90;;;27.50;45.90;;;;;;5100484;28;20073;-63
2023/09/04 11:11:22;;;;;;;2.53;2.20;;;27.50;46.70;;;;;;5104309;27;20032;-61
2023/09/04 11:13:59;;;;;;;5.55;2.33;;;27.60;46.90;;;;;;5102938;28;20043;-61
2023/09/04 11:16:26;;;;;;;2.22;2.00;;;27.60;46.00;;;;;;5104827;27;20027;-61
2023/09/04 11:19:14;;;;;;;2.75;1.90;;;27.60;46.30;;;;;;5107132;27;20020;-62
2023/09/04 11:21:42;;;;;;;4.35;2.00;;;27.60;46.00;;;;;;5116083;27;20148;-63
2023/09/04 11:24:08;;;;;;;4.68;2.05;;;27.70;46.70;;;;;;5105136;27;20026;-62
2023/09/04 11:26:34;;;;;;;3.28;2.25;;;27.80;47.00;;;;;;5110922;27;20032;-61
2023/09/04 11:29:01;;;;;;;3.38;2.28;;;27.80;46.60;;;;;;5060023;27;20509;-62
2023/09/04 11:31:28;;;;;;;4.03;1.73;;;27.90;47.30;;;;;;5110919;27;20022;-62
2023/09/04 11:33:55;;;;;;;2.33;1.70;;;28.00;46.80;;;;;;5112030;27;20020;-62
2023/09/04 11:36:22;;;;;;;5.95;1.95;;;28.10;45.70;;;;;;5101915;27;20028;-62
2023/09/04 11:38:51;;;;;;;5.22;2.00;;;28.10;44.60;;;;;;5104300;27;20027;-62
2023/09/04 11:41:18;;;;;;;2.78;2.00;;;28.30;44.70;;;;;;5103749;28;20051;-63
2023/09/04 11:43:44;;;;;;;2.55;2.10;;;28.30;45.60;;;;;;5108225;27;20083;-61
2023/09/04 11:46:11;;;;;;;7.57;1.98;;;28.40;45.40;;;;;;5112101;27;20062;-62
2023/09/04 11:48:37;;;;;;;3.03;2.22;;;28.40;44.00;;;;;;5104627;28;20028;-62
2023/09/04 11:51:09;;;;;;;3.03;2.25;;;28.50;44.90;;;;;;5106413;27;20020;-63
2023/09/04 11:53:35;;;;;;;3.55;2.33;;;28.50;44.30;;;;;;5106662;27;20106;-63
2023/09/04 11:56:03;;;;;;;2.67;2.03;;;28.60;44.70;;;;;;5107133;27;20524;-62
2023/09/04 11:58:29;;;;;;;4.90;2.08;;;28.60;44.70;;;;;;5102343;27;20016;-62
2023/09/04 12:00:55;;;;;;;2.22;2.03;;;28.70;44.10;;;;;;5096014;27;20024;-62
2023/09/04 12:03:21;;;;;;;3.85;2.40;;;28.80;44.20;;;;;;5093570;27;20035;-62
2023/09/04 12:05:51;;;;;;;2.92;2.25;;;28.80;44.00;;;;;;5099694;27;20062;-62
2023/09/04 12:08:17;;;;;;;2.83;2.35;;;28.80;43.70;;;;;;5103320;27;20035;-61
2023/09/04 12:10:43;;;;;;;2.63;2.20;;;28.90;44.10;;;;;;5103825;27;20378;-62
2023/09/04 12:13:11;;;;;;;2.70;2.15;;;28.90;43.30;;;;;;5099528;27;20232;-61
2023/09/04 12:15:38;;;;;;;3.03;2.03;;;29.00;42.70;;;;;;5106563;27;20016;-63
2023/09/04 12:18:05;;;;;;;3.88;2.42;;;28.90;42.60;;;;;;5096237;27;20020;-62
2023/09/04 12:20:41;;;;;;;2.72;2.03;;;29.00;42.90;;;;;;5101607;27;20054;-62
2023/09/04 12:23:08;;;;;;;2.72;2.25;;;29.00;43.50;;;;;;5094155;28;20027;-62
2023/09/04 12:25:37;;;;;;;3.50;2.00;;;29.10;43.50;;;;;;5101236;27;20108;-62
2023/09/04 12:28:06;;;;;;;2.85;2.10;;;29.10;43.40;;;;;;5095252;27;20084;-62
2023/09/04 12:30:44;;;;;;;5.03;2.20;;;29.20;43.20;;;;;;5099154;27;20026;-62
2023/09/04 12:33:14;;;;;;;2.60;2.20;;;29.20;42.40;;;;;;5112233;27;20020;-61
2023/09/04 12:35:43;;;;;;;2.40;2.20;;;29.20;43.20;;;;;;5102827;27;20016;-63
2023/09/04 12:38:10;;;;;;;3.22;2.22;;;29.30;42.40;;;;;;5099496;27;20024;-63
2023/09/04 12:40:36;;;;;;;2.78;2.05;;;29.40;42.40;;;;;;5099572;27;20024;-62
2023/09/04 12:43:02;;;;;;;4.50;2.30;;;29.40;42.20;;;;;;5097649;27;20039;-63
2023/09/04 12:45:28;;;;;;;3.13;1.90;;;29.40;42.70;;;;;;5103464;27;20035;-62
2023/09/04 12:47:53;;;;;;;2.35;1.95;;;29.50;42.40;;;;;;5101831;27;20095;-62
2023/09/04 12:50:19;;;;;;;7.15;2.22;;;29.50;42.30;;;;;;5086038;27;20020;-63